Time;durP1;ratioP1;P1;durP2;ratioP2;P2;SDS_P1;SDS_P2;PMS_P1;PMS_P2;Temp;Humidity;BMP_temperature;BMP_pressure;BME280_temperature;BME280_humidity;BME280_pressure;Samples;Min_cycle;Max_cycle;Signal;HPM_P1;HPM_P2
2023/09/19 00:00:57;;;;;;;13.98;2.38;;;16.50;99.90;;;;;;5093385;28;20039;-66
2023/09/19 00:03:23;;;;;;;10.70;2.60;;;16.50;99.90;;;;;;5093378;28;20028;-66
2023/09/19 00:05:50;;;;;;;10.35;2.42;;;16.50;99.90;;;;;;5090463;28;20046;-66
2023/09/19 00:08:16;;;;;;;15.02;2.35;;;16.50;99.90;;;;;;5091321;28;20032;-66
2023/09/19 00:10:43;;;;;;;15.00;2.80;;;16.60;99.90;;;;;;5101520;28;20028;-66
2023/09/19 00:13:12;;;;;;;15.68;2.92;;;16.60;99.90;;;;;;5099428;28;20028;-67
2023/09/19 00:15:40;;;;;;;12.15;2.63;;;16.60;99.90;;;;;;5094042;28;20043;-68
2023/09/19 00:18:07;;;;;;;13.60;2.05;;;16.60;99.90;;;;;;5093615;28;20039;-65
2023/09/19 00:20:35;;;;;;;12.88;2.63;;;16.60;99.90;;;;;;5093267;28;20024;-68
2023/09/19 00:23:02;;;;;;;16.25;3.10;;;16.60;99.90;;;;;;5092650;28;20472;-66
2023/09/19 00:25:28;;;;;;;13.52;2.42;;;16.70;99.90;;;;;;5086821;28;20369;-66
2023/09/19 00:27:55;;;;;;;9.50;2.30;;;16.60;99.90;;;;;;5086687;28;20037;-67
2023/09/19 00:30:24;;;;;;;11.82;2.22;;;16.70;99.90;;;;;;5088368;28;20472;-67
2023/09/19 00:32:52;;;;;;;10.45;2.22;;;16.70;99.90;;;;;;5087411;28;20124;-67
2023/09/19 00:35:18;;;;;;;8.32;2.17;;;16.70;99.90;;;;;;5091282;28;20028;-67
2023/09/19 00:37:45;;;;;;;14.02;2.42;;;16.70;99.90;;;;;;5092533;28;20472;-67
2023/09/19 00:40:15;;;;;;;9.65;2.20;;;16.70;99.90;;;;;;5092552;28;20092;-67
2023/09/19 00:42:46;;;;;;;11.35;2.15;;;16.70;99.90;;;;;;5092015;28;20050;-67
2023/09/19 00:45:13;;;;;;;9.82;2.47;;;16.70;99.90;;;;;;5092411;28;20026;-66
2023/09/19 00:47:49;;;;;;;11.27;2.10;;;16.70;99.90;;;;;;5091484;28;20031;-66
2023/09/19 00:50:21;;;;;;;13.48;2.47;;;16.80;99.90;;;;;;5087287;28;20117;-67
2023/09/19 00:52:49;;;;;;;;;;;16.80;99.90;;;;;;5089445;28;20048;-67
2023/09/19 00:55:18;;;;;;;11.00;2.25;;;16.80;99.90;;;;;;5091671;28;19908;-66
2023/09/19 00:57:44;;;;;;;13.05;2.47;;;16.70;99.90;;;;;;5094307;28;20460;-67
2023/09/19 01:00:15;;;;;;;11.52;2.38;;;16.80;99.90;;;;;;5095809;28;20031;-68
2023/09/19 01:02:42;;;;;;;10.15;2.13;;;16.80;99.90;;;;;;5096234;28;20426;-66
2023/09/19 01:05:09;;;;;;;12.68;2.40;;;16.80;99.90;;;;;;5095920;28;20023;-66
2023/09/19 01:07:35;;;;;;;10.23;2.65;;;16.80;99.90;;;;;;5094509;28;20442;-65
2023/09/19 01:10:05;;;;;;;12.45;2.60;;;16.80;99.90;;;;;;5090383;28;20048;-67
2023/09/19 01:12:46;;;;;;;11.70;2.88;;;16.80;99.90;;;;;;5095603;28;20147;-67
2023/09/19 01:15:19;;;;;;;10.55;2.60;;;16.80;99.90;;;;;;5095847;28;20024;-66
2023/09/19 01:18:02;;;;;;;15.52;2.55;;;16.80;99.90;;;;;;5096116;28;20444;-65
2023/09/19 01:20:47;;;;;;;9.70;2.45;;;16.80;99.90;;;;;;5095050;28;20466;-66
2023/09/19 01:23:43;;;;;;;11.15;2.35;;;16.90;99.90;;;;;;5093307;28;20027;-66
2023/09/19 01:26:32;;;;;;;17.08;3.42;;;16.80;99.90;;;;;;5094886;28;20036;-66
2023/09/19 01:29:19;;;;;;;9.35;2.47;;;16.80;99.90;;;;;;5094109;28;20103;-67
2023/09/19 01:31:47;;;;;;;13.80;2.88;;;16.80;99.90;;;;;;5094699;28;20032;-67
2023/09/19 01:34:12;;;;;;;15.95;3.72;;;16.80;99.90;;;;;;5087675;28;20047;-67
2023/09/19 01:36:38;;;;;;;8.82;2.70;;;16.80;99.90;;;;;;5095546;28;20024;-67
2023/09/19 01:39:21;;;;;;;14.40;3.00;;;16.90;99.90;;;;;;5095114;28;20024;-67
2023/09/19 01:42:14;;;;;;;15.10;2.75;;;16.90;99.90;;;;;;5094777;28;20063;-67
2023/09/19 01:44:44;;;;;;;;;;;17.00;99.90;;;;;;5093747;28;20369;-66
2023/09/19 01:47:28;;;;;;;13.57;2.60;;;17.00;99.90;;;;;;5095154;28;19954;-67
2023/09/19 01:50:31;;;;;;;12.48;2.70;;;17.00;99.90;;;;;;5094469;28;20093;-67
2023/09/19 01:53:09;;;;;;;21.45;3.38;;;17.00;99.90;;;;;;5094920;28;20144;-67
2023/09/19 01:55:42;;;;;;;14.10;2.88;;;17.00;99.90;;;;;;5095624;28;20507;-66
2023/09/19 01:58:19;;;;;;;9.82;2.03;;;17.00;99.90;;;;;;5095411;28;20392;-66
2023/09/19 02:00:48;;;;;;;12.82;2.28;;;17.00;99.90;;;;;;5095521;28;20464;-66
2023/09/19 02:03:14;;;;;;;11.85;2.38;;;17.00;99.90;;;;;;5094898;28;20075;-66
2023/09/19 02:05:40;;;;;;;12.73;2.35;;;17.00;99.90;;;;;;5094976;28;20460;-66
2023/09/19 02:08:08;;;;;;;17.23;3.22;;;17.00;99.90;;;;;;5094217;28;20020;-67
2023/09/19 02:10:34;;;;;;;15.77;2.78;;;17.00;99.90;;;;;;5094260;28;20020;-66
2023/09/19 02:13:00;;;;;;;18.88;3.17;;;17.00;99.90;;;;;;5094688;28;20032;-66
2023/09/19 02:15:25;;;;;;;13.48;2.83;;;17.10;99.90;;;;;;5094812;28;20436;-66
2023/09/19 02:17:51;;;;;;;17.67;3.15;;;17.10;99.90;;;;;;5088422;28;20035;-66
2023/09/19 02:20:17;;;;;;;13.38;2.45;;;17.00;99.90;;;;;;5094982;28;20020;-66
2023/09/19 02:22:42;;;;;;;13.18;2.45;;;17.00;99.90;;;;;;5094450;28;20016;-67
2023/09/19 02:25:08;;;;;;;13.80;2.67;;;16.90;99.90;;;;;;5094656;28;20028;-67
2023/09/19 02:27:34;;;;;;;14.60;2.72;;;16.90;99.90;;;;;;5094533;28;20020;-65
2023/09/19 02:30:04;;;;;;;11.18;2.65;;;16.90;99.90;;;;;;5093905;28;20024;-66
2023/09/19 02:32:31;;;;;;;12.73;2.50;;;16.90;99.90;;;;;;5094444;28;20028;-66
2023/09/19 02:34:58;;;;;;;13.65;2.70;;;16.90;99.90;;;;;;5094166;28;20089;-67
2023/09/19 02:37:23;;;;;;;13.82;2.53;;;17.00;99.90;;;;;;5094059;28;20073;-66
2023/09/19 02:39:49;;;;;;;14.35;2.40;;;17.00;99.90;;;;;;5091469;28;20020;-66
2023/09/19 02:42:14;;;;;;;14.25;2.50;;;16.90;99.90;;;;;;5093627;28;20024;-66
2023/09/19 02:44:40;;;;;;;13.15;2.53;;;16.90;99.90;;;;;;5094463;28;20471;-66
2023/09/19 02:47:05;;;;;;;10.95;2.20;;;16.90;99.90;;;;;;5093756;28;20107;-66
2023/09/19 02:49:31;;;;;;;13.25;2.30;;;16.90;99.90;;;;;;5093973;28;20048;-66
2023/09/19 02:51:59;;;;;;;15.73;2.85;;;16.80;99.90;;;;;;5093740;28;20024;-66
2023/09/19 02:54:25;;;;;;;14.55;3.05;;;16.90;99.90;;;;;;5093805;28;20032;-66
2023/09/19 02:56:50;;;;;;;16.58;2.60;;;16.80;99.90;;;;;;5094075;28;20023;-66
2023/09/19 02:59:16;;;;;;;14.32;2.53;;;16.90;99.90;;;;;;5091013;28;20016;-66
2023/09/19 03:01:46;;;;;;;14.65;3.10;;;16.80;99.90;;;;;;5086270;28;20055;-66
2023/09/19 03:04:12;;;;;;;16.63;2.85;;;16.90;99.90;;;;;;5093931;28;20032;-66
2023/09/19 03:06:40;;;;;;;13.35;2.80;;;16.90;99.90;;;;;;5093402;28;20019;-66
2023/09/19 03:09:13;;;;;;;16.83;3.00;;;16.90;99.90;;;;;;5087533;28;20074;-66
2023/09/19 03:11:40;;;;;;;16.85;2.67;;;16.90;99.90;;;;;;5091414;28;20039;-66
2023/09/19 03:14:05;;;;;;;13.93;2.92;;;17.00;99.90;;;;;;5093677;28;20464;-66
2023/09/19 03:16:31;;;;;;;11.68;2.53;;;16.90;99.90;;;;;;5093474;28;20020;-66
2023/09/19 03:18:58;;;;;;;18.83;3.15;;;16.90;99.90;;;;;;5093627;28;20016;-67
2023/09/19 03:21:24;;;;;;;12.40;2.58;;;16.80;99.90;;;;;;5092843;28;20020;-66
2023/09/19 03:23:49;;;;;;;13.48;2.85;;;16.80;99.90;;;;;;5093586;28;20020;-66
2023/09/19 03:26:15;;;;;;;12.93;2.28;;;16.80;99.90;;;;;;5093235;28;20383;-66
2023/09/19 03:28:42;;;;;;;13.77;2.22;;;16.80;99.90;;;;;;5093472;28;20089;-66
2023/09/19 03:31:08;;;;;;;13.07;2.55;;;16.70;99.90;;;;;;5093336;28;20043;-66
2023/09/19 03:33:34;;;;;;;11.63;2.42;;;16.70;99.90;;;;;;5093040;28;20040;-66
2023/09/19 03:36:01;;;;;;;11.18;2.60;;;16.70;99.90;;;;;;5094160;28;20019;-66
2023/09/19 03:38:28;;;;;;;13.80;2.33;;;16.60;99.90;;;;;;5100293;28;20028;-67
2023/09/19 03:40:54;;;;;;;8.80;1.92;;;16.70;99.90;;;;;;5103131;28;20482;-66
2023/09/19 03:43:19;;;;;;;10.82;2.58;;;16.70;99.90;;;;;;5102548;28;20020;-66
2023/09/19 03:45:46;;;;;;;12.43;4.50;;;16.70;99.90;;;;;;5110070;28;20092;-67
2023/09/19 03:48:12;;;;;;;15.75;4.72;;;16.60;99.90;;;;;;5107188;28;20015;-67
2023/09/19 03:50:38;;;;;;;15.18;3.95;;;16.60;99.90;;;;;;5105471;28;20044;-66
2023/09/19 03:53:04;;;;;;;13.73;3.42;;;16.60;99.90;;;;;;5104545;28;20043;-67
2023/09/19 03:55:32;;;;;;;15.13;3.63;;;16.70;99.90;;;;;;5097283;28;20075;-66
2023/09/19 03:57:58;;;;;;;19.35;3.65;;;16.70;99.90;;;;;;5110079;28;20103;-66
2023/09/19 04:00:26;;;;;;;16.90;3.40;;;16.70;99.90;;;;;;5098389;28;20110;-66
2023/09/19 04:02:52;;;;;;;14.32;2.65;;;16.70;99.90;;;;;;5103558;28;20028;-66
2023/09/19 04:05:18;;;;;;;17.00;2.50;;;16.70;99.90;;;;;;5106694;28;20120;-66
2023/09/19 04:07:44;;;;;;;11.95;3.00;;;16.70;99.90;;;;;;5096573;28;20110;-66
2023/09/19 04:10:11;;;;;;;18.10;3.28;;;16.60;99.90;;;;;;5109754;28;20048;-66
2023/09/19 04:12:37;;;;;;;12.65;2.90;;;16.60;99.90;;;;;;5100844;28;20042;-66
2023/09/19 04:15:06;;;;;;;16.08;2.85;;;16.60;99.90;;;;;;5102409;28;20050;-66
2023/09/19 04:17:33;;;;;;;13.20;3.58;;;16.50;99.90;;;;;;5103044;28;20028;-66
2023/09/19 04:19:59;;;;;;;12.13;2.83;;;16.50;99.90;;;;;;5093703;28;20046;-67
2023/09/19 04:22:24;;;;;;;18.15;2.90;;;16.50;99.90;;;;;;5107756;28;20468;-67
2023/09/19 04:24:50;;;;;;;11.65;2.30;;;16.50;99.90;;;;;;5108806;28;20103;-67
2023/09/19 04:27:16;;;;;;;13.63;2.60;;;16.50;99.90;;;;;;5089575;28;20472;-67
2023/09/19 04:29:41;;;;;;;12.40;3.05;;;16.50;99.90;;;;;;5100601;28;20028;-65
2023/09/19 04:32:07;;;;;;;12.63;2.60;;;16.50;99.90;;;;;;5097735;28;20027;-66
2023/09/19 04:34:34;;;;;;;12.18;3.10;;;16.60;99.90;;;;;;5101175;28;20089;-67
2023/09/19 04:37:00;;;;;;;10.90;2.38;;;16.60;99.90;;;;;;5109874;28;20020;-66
2023/09/19 04:39:26;;;;;;;15.27;2.70;;;16.60;99.90;;;;;;5110906;28;20027;-66
2023/09/19 04:41:53;;;;;;;13.75;2.38;;;16.70;99.90;;;;;;5110226;28;20060;-66
2023/09/19 04:44:19;;;;;;;9.27;2.30;;;16.70;99.90;;;;;;5112867;28;20024;-66
2023/09/19 04:46:46;;;;;;;14.48;2.60;;;16.70;99.90;;;;;;5105122;28;20035;-66
2023/09/19 04:49:12;;;;;;;11.02;2.15;;;16.70;99.90;;;;;;5100968;28;20075;-67
2023/09/19 04:51:37;;;;;;;14.73;2.35;;;16.70;99.90;;;;;;5098866;28;20023;-66
2023/09/19 04:54:04;;;;;;;9.73;2.20;;;16.80;99.90;;;;;;5111163;28;20088;-66
2023/09/19 04:56:29;;;;;;;13.60;2.97;;;16.80;99.90;;;;;;5112587;28;20019;-65
2023/09/19 04:58:56;;;;;;;15.88;2.80;;;16.80;99.90;;;;;;5112609;28;20026;-66
2023/09/19 05:01:23;;;;;;;16.98;2.60;;;16.80;99.90;;;;;;5104729;28;20092;-67
2023/09/19 05:03:54;;;;;;;12.90;2.70;;;16.80;99.90;;;;;;5105744;28;20034;-66
2023/09/19 05:06:21;;;;;;;11.48;2.72;;;16.80;99.90;;;;;;5100489;28;20383;-66
2023/09/19 05:08:50;;;;;;;11.68;2.60;;;16.90;99.90;;;;;;5100569;28;20048;-66
2023/09/19 05:11:21;;;;;;;10.68;2.88;;;16.90;99.90;;;;;;5097425;28;20024;-67
2023/09/19 05:13:47;;;;;;;11.13;2.83;;;16.90;99.90;;;;;;5099404;28;20537;-66
2023/09/19 05:16:12;;;;;;;13.32;3.17;;;16.90;99.90;;;;;;5100781;28;20016;-67
2023/09/19 05:18:38;;;;;;;12.45;2.88;;;16.90;99.90;;;;;;5100776;28;20032;-66
2023/09/19 05:21:04;;;;;;;13.55;3.13;;;17.00;99.90;;;;;;5100184;28;20059;-67
2023/09/19 05:23:31;;;;;;;14.05;2.88;;;16.90;99.90;;;;;;5098917;28;20039;-66
2023/09/19 05:25:59;;;;;;;15.88;2.97;;;17.00;99.90;;;;;;5100510;28;20684;-67
2023/09/19 05:28:26;;;;;;;19.20;3.17;;;16.90;99.90;;;;;;5112322;28;20475;-67
2023/09/19 05:30:55;;;;;;;17.27;2.90;;;16.90;99.90;;;;;;5116787;28;20019;-66
2023/09/19 05:33:20;;;;;;;16.45;3.22;;;16.90;99.90;;;;;;5116976;28;20028;-65
2023/09/19 05:35:48;;;;;;;12.55;3.50;;;16.90;99.90;;;;;;5116764;28;20031;-65
2023/09/19 05:38:15;;;;;;;18.50;2.90;;;16.80;99.90;;;;;;5116527;28;20020;-65
2023/09/19 05:40:42;;;;;;;17.02;3.30;;;16.70;99.90;;;;;;5116165;28;20113;-65
2023/09/19 05:43:08;;;;;;;16.92;3.65;;;16.60;99.90;;;;;;5104473;28;20027;-64
2023/09/19 05:45:34;;;;;;;16.25;3.20;;;16.50;99.90;;;;;;5085559;28;20104;-66
2023/09/19 05:48:11;;;;;;;15.07;2.97;;;16.50;99.90;;;;;;5092318;28;20063;-65
2023/09/19 05:50:38;;;;;;;15.38;3.40;;;16.40;99.90;;;;;;5095684;28;20036;-66
2023/09/19 05:53:07;;;;;;;19.13;3.55;;;16.30;99.90;;;;;;5106846;28;20028;-66
2023/09/19 05:55:33;;;;;;;19.52;3.92;;;16.30;99.90;;;;;;5099461;28;20391;-65
2023/09/19 05:57:59;;;;;;;17.70;3.17;;;16.20;99.90;;;;;;5111299;28;20106;-66
2023/09/19 06:00:27;;;;;;;13.57;3.08;;;16.20;99.90;;;;;;5100023;28;20019;-66
2023/09/19 06:02:57;;;;;;;19.58;5.53;;;16.20;99.90;;;;;;5103403;28;20032;-66
2023/09/19 06:05:24;;;;;;;22.77;5.13;;;16.20;99.90;;;;;;5107635;28;20023;-67
2023/09/19 06:07:50;;;;;;;19.75;4.32;;;16.20;99.90;;;;;;5096369;28;20459;-68
2023/09/19 06:10:17;;;;;;;19.77;4.65;;;16.20;99.90;;;;;;5108643;28;20509;-67
2023/09/19 06:12:43;;;;;;;24.92;5.28;;;16.10;99.90;;;;;;5101731;28;20037;-67
2023/09/19 06:15:15;;;;;;;19.23;4.07;;;16.00;99.90;;;;;;5101334;28;20116;-65
2023/09/19 06:17:55;;;;;;;20.00;4.95;;;16.00;99.90;;;;;;5111451;28;20026;-66
2023/09/19 06:20:23;;;;;;;16.55;4.10;;;16.10;99.90;;;;;;5085222;28;20111;-67
2023/09/19 06:22:49;;;;;;;16.05;3.58;;;16.00;99.90;;;;;;5105114;28;20388;-67
2023/09/19 06:25:19;;;;;;;16.10;3.72;;;16.00;99.90;;;;;;5096029;28;20095;-66
2023/09/19 06:27:53;;;;;;;21.42;4.70;;;16.00;99.90;;;;;;5095303;28;20112;-66
2023/09/19 06:30:20;;;;;;;17.38;4.30;;;16.00;99.90;;;;;;5094936;28;20498;-67
2023/09/19 06:32:46;;;;;;;17.17;4.82;;;16.00;99.90;;;;;;5094773;28;20034;-66
2023/09/19 06:35:16;;;;;;;19.88;5.10;;;16.00;99.90;;;;;;5095078;28;20024;-66
2023/09/19 06:37:43;;;;;;;19.08;4.22;;;16.00;99.90;;;;;;5094939;28;20103;-67
2023/09/19 06:40:15;;;;;;;20.88;5.05;;;16.00;99.90;;;;;;5093729;28;20433;-66
2023/09/19 06:42:42;;;;;;;19.92;4.20;;;16.10;99.90;;;;;;5095089;28;20032;-68
2023/09/19 06:45:11;;;;;;;17.02;3.58;;;16.20;99.90;;;;;;5095067;28;20039;-66
2023/09/19 06:47:37;;;;;;;19.05;4.55;;;16.20;99.90;;;;;;5094556;28;20028;-66
2023/09/19 06:50:03;;;;;;;21.88;4.85;;;16.30;99.90;;;;;;5095124;28;20088;-66
2023/09/19 06:52:29;;;;;;;21.20;4.72;;;16.40;99.90;;;;;;5094671;28;20117;-66
2023/09/19 06:54:54;;;;;;;14.50;3.70;;;16.60;99.90;;;;;;5094030;28;20078;-66
2023/09/19 06:57:20;;;;;;;18.63;3.90;;;16.70;99.90;;;;;;5094628;28;20056;-66
2023/09/19 06:59:46;;;;;;;13.75;3.30;;;16.70;99.90;;;;;;5094262;28;20031;-66
2023/09/19 07:02:11;;;;;;;16.67;3.55;;;16.80;99.90;;;;;;5094608;28;20028;-66
2023/09/19 07:04:37;;;;;;;18.70;4.55;;;17.00;99.90;;;;;;5094691;28;20031;-65
2023/09/19 07:07:03;;;;;;;17.05;4.90;;;17.00;99.90;;;;;;5094457;28;20024;-67
2023/09/19 07:09:29;;;;;;;18.50;4.15;;;17.10;99.90;;;;;;5094563;28;20089;-66
2023/09/19 07:11:54;;;;;;;14.57;3.42;;;17.20;99.90;;;;;;5094734;28;20020;-66
2023/09/19 07:14:20;;;;;;;19.77;4.80;;;17.30;99.90;;;;;;5094185;28;20040;-66
2023/09/19 07:16:50;;;;;;;17.90;3.90;;;17.40;99.90;;;;;;5092908;28;20120;-66
2023/09/19 07:19:16;;;;;;;13.52;3.22;;;17.50;99.90;;;;;;5094150;28;20487;-66
2023/09/19 07:21:42;;;;;;;15.60;3.63;;;17.50;99.90;;;;;;5094352;28;20024;-67
2023/09/19 07:24:08;;;;;;;21.55;4.40;;;17.60;99.90;;;;;;5094413;28;20028;-67
2023/09/19 07:26:34;;;;;;;15.80;3.60;;;17.60;99.90;;;;;;5093869;28;20024;-66
2023/09/19 07:28:59;;;;;;;16.45;3.65;;;17.70;99.90;;;;;;5088946;28;20028;-66
2023/09/19 07:31:26;;;;;;;15.10;3.25;;;17.70;99.90;;;;;;5092742;28;20032;-66
2023/09/19 07:33:53;;;;;;;18.77;3.90;;;17.80;99.90;;;;;;5094009;28;20036;-67
2023/09/19 07:36:19;;;;;;;16.90;4.22;;;17.80;99.90;;;;;;5092541;28;20024;-68
2023/09/19 07:38:45;;;;;;;15.85;3.63;;;17.90;99.90;;;;;;5093638;28;20012;-67
2023/09/19 07:41:10;;;;;;;17.83;5.43;;;18.00;99.90;;;;;;5093874;28;20039;-67
2023/09/19 07:43:38;;;;;;;21.20;4.72;;;18.30;99.90;;;;;;5093503;28;20020;-66
2023/09/19 07:46:06;;;;;;;17.38;4.32;;;18.40;99.90;;;;;;5094057;28;20467;-67
2023/09/19 07:48:33;;;;;;;21.35;5.43;;;18.60;99.90;;;;;;5093463;28;20479;-67
2023/09/19 07:51:06;;;;;;;16.83;3.92;;;19.10;99.90;;;;;;5093389;28;20068;-67
2023/09/19 07:53:34;;;;;;;17.73;4.00;;;19.70;99.90;;;;;;5091525;28;20040;-66
2023/09/19 07:56:07;;;;;;;15.05;3.78;;;20.20;99.90;;;;;;5093458;28;20020;-66
2023/09/19 07:58:34;;;;;;;14.25;3.63;;;20.10;99.90;;;;;;5093221;28;20027;-66
2023/09/19 08:01:06;;;;;;;16.40;3.40;;;20.20;99.90;;;;;;5093854;28;20020;-67
2023/09/19 08:03:34;;;;;;;15.88;4.40;;;20.20;99.90;;;;;;5091477;28;20035;-67
2023/09/19 08:06:00;;;;;;;17.15;4.20;;;20.10;99.90;;;;;;5091057;28;20079;-66
2023/09/19 08:08:27;;;;;;;17.23;4.40;;;20.00;99.90;;;;;;5091302;28;20031;-66
2023/09/19 08:10:56;;;;;;;20.52;4.10;;;20.20;99.90;;;;;;5092037;28;20028;-66
2023/09/19 08:13:23;;;;;;;18.15;4.22;;;20.20;99.90;;;;;;5091584;28;20372;-67
2023/09/19 08:15:48;;;;;;;18.23;3.80;;;20.40;99.90;;;;;;5092907;28;20034;-67
2023/09/19 08:18:15;;;;;;;16.05;4.28;;;20.40;99.90;;;;;;5092974;28;20434;-67
2023/09/19 08:20:45;;;;;;;19.52;4.38;;;20.40;99.90;;;;;;5092986;28;20023;-66
2023/09/19 08:23:12;;;;;;;17.85;4.13;;;20.20;99.90;;;;;;5092944;28;20027;-67
2023/09/19 08:25:39;;;;;;;17.45;3.10;;;20.20;99.90;;;;;;5088509;28;20035;-67
2023/09/19 08:28:08;;;;;;;18.92;3.83;;;20.50;99.90;;;;;;5093151;28;20357;-66
2023/09/19 08:30:34;;;;;;;15.98;3.67;;;20.70;99.90;;;;;;5092917;28;20029;-66
2023/09/19 08:33:00;;;;;;;12.45;3.70;;;21.00;99.90;;;;;;5092918;28;20031;-65
2023/09/19 08:35:29;;;;;;;16.20;3.70;;;21.00;99.60;;;;;;5093019;28;20043;-66
2023/09/19 08:37:55;;;;;;;15.43;3.63;;;20.90;99.90;;;;;;5092919;28;20118;-66
2023/09/19 08:40:21;;;;;;;15.85;3.10;;;20.60;99.90;;;;;;5092998;28;20043;-67
2023/09/19 08:42:56;;;;;;;12.20;2.83;;;20.30;99.90;;;;;;5092674;28;20487;-66
2023/09/19 08:45:28;;;;;;;14.95;2.83;;;20.00;99.90;;;;;;5093124;28;20062;-66
2023/09/19 08:48:03;;;;;;;13.07;3.20;;;19.80;99.90;;;;;;5092976;28;20028;-66
2023/09/19 08:50:30;;;;;;;19.27;3.45;;;19.70;99.90;;;;;;5093232;28;20040;-67
2023/09/19 08:53:00;;;;;;;12.60;3.17;;;19.60;99.90;;;;;;5092151;28;20073;-66
2023/09/19 08:55:29;;;;;;;16.27;3.15;;;19.60;99.90;;;;;;5092920;28;20035;-65
2023/09/19 08:58:04;;;;;;;15.10;2.42;;;19.60;99.90;;;;;;5110047;28;20383;-66
2023/09/19 09:00:31;;;;;;;15.57;3.13;;;19.60;99.90;;;;;;5092878;28;20070;-66
2023/09/19 09:02:58;;;;;;;10.32;2.17;;;19.60;99.90;;;;;;5092028;28;20357;-66
2023/09/19 09:05:24;;;;;;;16.60;3.03;;;19.60;99.90;;;;;;5081383;28;20033;-67
2023/09/19 09:07:51;;;;;;;14.60;3.40;;;19.50;99.90;;;;;;5072838;28;20078;-66
2023/09/19 09:10:18;;;;;;;16.85;3.00;;;19.60;99.90;;;;;;5091096;28;20028;-66
2023/09/19 09:12:43;;;;;;;17.70;4.07;;;19.70;99.90;;;;;;5092156;28;20036;-67
2023/09/19 09:15:11;;;;;;;15.57;3.33;;;20.10;99.90;;;;;;5092622;28;20082;-66
2023/09/19 09:17:37;;;;;;;15.23;3.28;;;20.50;99.90;;;;;;5093037;28;20024;-66
2023/09/19 09:20:09;;;;;;;16.67;3.72;;;20.60;99.90;;;;;;5096958;28;20028;-66
2023/09/19 09:22:36;;;;;;;18.77;4.30;;;20.70;99.90;;;;;;5094311;28;20032;-66
2023/09/19 09:25:04;;;;;;;20.42;4.43;;;21.10;99.90;;;;;;5089080;28;20186;-66
2023/09/19 09:27:30;;;;;;;14.10;3.17;;;21.50;99.90;;;;;;5075923;28;20064;-65
2023/09/19 09:29:55;;;;;;;14.35;3.35;;;21.70;99.90;;;;;;5075243;28;20033;-66
2023/09/19 09:32:24;;;;;;;16.50;4.82;;;21.40;99.90;;;;;;5079199;28;20032;-66
2023/09/19 09:34:54;;;;;;;13.35;3.45;;;21.10;99.90;;;;;;5089627;28;20050;-66
2023/09/19 09:37:21;;;;;;;16.08;4.15;;;20.80;99.90;;;;;;5080136;28;20034;-66
2023/09/19 09:39:56;;;;;;;21.13;4.65;;;20.70;99.90;;;;;;5075787;28;20028;-66
2023/09/19 09:42:39;;;;;;;14.38;3.28;;;20.50;99.90;;;;;;5074833;28;20028;-67
2023/09/19 09:48:03;;;;;;;15.00;5.22;;;20.70;99.90;;;;;;5075964;28;20032;-66
2023/09/19 09:50:44;;;;;;;17.08;4.47;;;21.00;99.90;;;;;;5087357;28;20040;-67
2023/09/19 09:53:32;;;;;;;17.13;4.15;;;20.80;99.90;;;;;;5096504;28;20111;-67
2023/09/19 09:56:24;;;;;;;19.65;4.18;;;20.50;99.90;;;;;;5095694;28;20031;-66
2023/09/19 09:58:54;;;;;;;17.90;5.03;;;20.40;99.90;;;;;;5096262;28;20369;-67
2023/09/19 10:01:21;;;;;;;15.63;4.72;;;20.40;99.90;;;;;;5104688;28;20047;-66
2023/09/19 10:03:51;;;;;;;14.85;3.60;;;20.50;99.90;;;;;;5102803;28;20094;-66
2023/09/19 10:09:11;;;;;;;16.70;3.65;;;20.40;99.90;;;;;;5095578;28;20081;-66
2023/09/19 10:11:43;;;;;;;14.90;3.72;;;20.70;99.90;;;;;;5094575;28;20117;-65
2023/09/19 10:14:16;;;;;;;16.25;3.35;;;20.60;99.90;;;;;;5095259;28;20036;-65
2023/09/19 10:16:46;;;;;;;15.15;3.05;;;20.40;99.90;;;;;;5095751;28;20032;-67
2023/09/19 10:19:30;;;;;;;13.52;2.72;;;20.30;99.90;;;;;;5095580;28;20081;-66
2023/09/19 10:21:56;;;;;;;17.30;3.28;;;20.10;99.90;;;;;;5095408;28;20077;-66
2023/09/19 10:24:24;;;;;;;15.30;3.38;;;20.00;99.90;;;;;;5095428;28;20032;-66
2023/09/19 10:26:51;;;;;;;15.57;3.03;;;19.90;99.90;;;;;;5095211;28;20069;-66
2023/09/19 10:29:18;;;;;;;14.73;2.97;;;19.80;99.90;;;;;;5094819;28;20031;-66
2023/09/19 10:31:47;;;;;;;11.70;3.17;;;19.80;99.90;;;;;;5094828;28;20095;-65
2023/09/19 10:34:14;;;;;;;17.75;3.28;;;19.80;99.90;;;;;;5095277;28;20040;-65
2023/09/19 10:36:49;;;;;;;9.63;2.63;;;19.80;99.90;;;;;;5094692;28;20483;-66
2023/09/19 10:39:19;;;;;;;20.38;3.30;;;19.70;99.90;;;;;;5095251;28;20039;-66
2023/09/19 10:41:54;;;;;;;13.38;2.75;;;19.60;99.90;;;;;;5095245;28;20024;-67
2023/09/19 10:44:28;;;;;;;14.15;3.28;;;19.50;99.90;;;;;;5095435;28;20081;-65
2023/09/19 10:46:54;;;;;;;12.38;2.60;;;19.30;99.90;;;;;;5095009;28;20051;-67
2023/09/19 10:49:21;;;;;;;13.90;2.92;;;19.00;99.90;;;;;;5094517;28;20419;-67
2023/09/19 10:51:49;;;;;;;17.98;3.70;;;18.90;99.90;;;;;;5094565;28;20041;-66
2023/09/19 10:54:19;;;;;;;10.45;2.50;;;18.80;99.90;;;;;;5094455;28;20044;-66
2023/09/19 10:56:50;;;;;;;17.35;2.95;;;18.90;99.90;;;;;;5094692;28;20031;-66
2023/09/19 10:59:18;;;;;;;14.93;3.03;;;18.90;99.90;;;;;;5093215;28;20462;-66
2023/09/19 11:01:51;;;;;;;15.63;3.10;;;19.00;99.90;;;;;;5094448;28;20032;-67
2023/09/19 11:04:29;;;;;;;15.93;2.75;;;19.00;99.90;;;;;;5094634;28;20348;-66
2023/09/19 11:07:04;;;;;;;10.73;2.20;;;18.90;99.90;;;;;;5093852;28;20042;-66
2023/09/19 11:09:54;;;;;;;14.55;3.05;;;18.90;99.90;;;;;;5094464;28;20023;-66
2023/09/19 11:12:35;;;;;;;12.43;2.58;;;19.00;99.90;;;;;;5093502;28;20047;-66
2023/09/19 11:15:04;;;;;;;10.70;2.38;;;19.00;99.90;;;;;;5094343;28;20046;-66
2023/09/19 11:17:34;;;;;;;14.55;2.70;;;19.10;99.90;;;;;;5094336;28;20482;-66
2023/09/19 11:22:50;;;;;;;10.30;2.03;;;19.50;99.90;;;;;;5093675;28;20024;-66
2023/09/19 11:25:32;;;;;;;12.10;2.50;;;19.70;99.90;;;;;;5092903;28;20024;-66
2023/09/19 11:28:05;;;;;;;10.18;2.17;;;19.60;99.90;;;;;;5092328;28;20032;-65
2023/09/19 11:30:35;;;;;;;9.27;2.33;;;19.30;99.90;;;;;;5093982;28;20552;-66
2023/09/19 11:33:31;;;;;;;7.60;2.08;;;19.10;99.90;;;;;;5093677;28;20032;-66
2023/09/19 11:36:15;;;;;;;12.25;2.60;;;18.90;99.90;;;;;;5094021;28;20464;-65
2023/09/19 11:38:44;;;;;;;12.95;2.92;;;18.90;99.90;;;;;;5093976;28;20020;-65
2023/09/19 11:41:39;;;;;;;10.90;2.50;;;18.70;99.90;;;;;;5093757;28;20036;-66
2023/09/19 11:44:10;;;;;;;12.70;2.67;;;18.60;99.90;;;;;;5094065;28;20440;-66
2023/09/19 11:46:56;;;;;;;10.73;2.00;;;18.50;99.90;;;;;;5094336;28;20024;-65
2023/09/19 11:49:30;;;;;;;11.02;3.50;;;18.60;99.90;;;;;;5093572;28;20560;-65
2023/09/19 11:51:56;;;;;;;10.77;2.28;;;18.70;99.90;;;;;;5094077;28;20040;-66
2023/09/19 11:54:22;;;;;;;13.55;2.35;;;18.80;99.90;;;;;;5093483;28;20042;-66
2023/09/19 11:56:53;;;;;;;14.27;2.90;;;18.80;99.90;;;;;;5093863;28;20024;-66
2023/09/19 11:59:30;;;;;;;11.48;2.55;;;18.80;99.90;;;;;;5093518;28;20114;-66
2023/09/19 12:01:58;;;;;;;10.13;2.53;;;19.00;99.90;;;;;;5093189;28;20480;-65
2023/09/19 12:04:43;;;;;;;12.18;2.70;;;18.90;99.90;;;;;;5093503;28;20032;-64
2023/09/19 12:07:16;;;;;;;14.40;2.75;;;18.60;99.90;;;;;;5093841;28;20032;-66
2023/09/19 12:09:47;;;;;;;12.13;2.42;;;18.50;99.90;;;;;;5093475;28;20020;-65
2023/09/19 12:12:26;;;;;;;10.63;2.58;;;18.40;99.90;;;;;;5091345;28;20106;-66
2023/09/19 12:14:53;;;;;;;17.85;2.72;;;18.40;99.90;;;;;;5093651;28;20050;-66
2023/09/19 12:17:22;;;;;;;16.33;3.05;;;18.40;99.90;;;;;;5093337;28;20423;-66
2023/09/19 12:19:55;;;;;;;11.60;2.70;;;18.70;99.90;;;;;;5092953;28;20363;-66
2023/09/19 12:22:21;;;;;;;11.48;2.40;;;19.10;99.90;;;;;;5093114;28;20391;-66
2023/09/19 12:24:47;;;;;;;10.95;2.83;;;19.30;99.90;;;;;;5093183;28;20020;-66
2023/09/19 12:27:13;;;;;;;9.80;2.35;;;19.50;99.90;;;;;;5113499;28;20122;-66
2023/09/19 12:29:43;;;;;;;8.98;2.35;;;19.80;99.90;;;;;;5114090;28;20055;-66
2023/09/19 12:32:09;;;;;;;7.88;1.70;;;20.10;99.90;;;;;;5113043;28;20036;-66
2023/09/19 12:34:35;;;;;;;10.02;2.60;;;20.20;99.90;;;;;;5113611;28;20058;-65
2023/09/19 12:37:29;;;;;;;17.80;3.00;;;20.40;99.90;;;;;;5113377;28;20049;-65
2023/09/19 12:40:15;;;;;;;11.30;2.50;;;20.40;99.90;;;;;;5113336;28;20445;-66
2023/09/19 12:42:41;;;;;;;10.02;2.17;;;20.30;99.90;;;;;;5113686;28;20024;-66
2023/09/19 12:45:09;;;;;;;14.05;2.42;;;20.20;99.90;;;;;;5113206;28;20024;-65
2023/09/19 12:47:35;;;;;;;13.02;2.88;;;20.20;99.90;;;;;;5113337;28;20027;-66
2023/09/19 12:50:07;;;;;;;9.45;2.70;;;20.00;99.90;;;;;;5112718;28;20111;-65
2023/09/19 12:52:41;;;;;;;19.00;2.95;;;19.90;99.90;;;;;;5111754;28;20070;-66
2023/09/19 12:55:07;;;;;;;14.43;3.45;;;19.90;99.90;;;;;;5117213;28;20024;-65
2023/09/19 12:57:34;;;;;;;17.27;3.45;;;19.90;99.90;;;;;;5117404;28;20040;-65